sensor_id;sensor_type;location;lat;lon;timestamp;P1;P2;P0
67892;PMS7003;54688;52.376;16.744;2023-07-29T00:01:29;12;12;
67892;PMS7003;54688;52.376;16.744;2023-07-29T00:04:31;14;12;
67892;PMS7003;54688;52.376;16.744;2023-07-29T00:07:33;12;10;
67892;PMS7003;54688;52.376;16.744;2023-07-29T00:10:36;10;10;
67892;PMS7003;54688;52.376;16.744;2023-07-29T00:13:39;9;9;
67892;PMS7003;54688;52.376;16.744;2023-07-29T00:16:40;13;10;
67892;PMS7003;54688;52.376;16.744;2023-07-29T00:19:42;13;13;
67892;PMS7003;54688;52.376;16.744;2023-07-29T00:22:44;14;12;
67892;PMS7003;54688;52.376;16.744;2023-07-29T00:25:46;13;11;
67892;PMS7003;54688;52.376;16.744;2023-07-29T00:28:48;15;11;
67892;PMS7003;54688;52.376;16.744;2023-07-29T00:31:50;14;10;
67892;PMS7003;54688;52.376;16.744;2023-07-29T00:34:52;7;7;
67892;PMS7003;54688;52.376;16.744;2023-07-29T00:37:53;10;9;
67892;PMS7003;54688;52.376;16.744;2023-07-29T00:40:57;9;9;
67892;PMS7003;54688;52.376;16.744;2023-07-29T00:43:58;13;13;
67892;PMS7003;54688;52.376;16.744;2023-07-29T00:47:02;12;9;
67892;PMS7003;54688;52.376;16.744;2023-07-29T00:50:05;11;9;
67892;PMS7003;54688;52.376;16.744;2023-07-29T00:53:08;12;10;
67892;PMS7003;54688;52.376;16.744;2023-07-29T00:56:10;9;9;
67892;PMS7003;54688;52.376;16.744;2023-07-29T00:59:12;9;7;
67892;PMS7003;54688;52.376;16.744;2023-07-29T01:02:14;8;7;
67892;PMS7003;54688;52.376;16.744;2023-07-29T01:05:17;10;9;
67892;PMS7003;54688;52.376;16.744;2023-07-29T01:08:21;9;9;
67892;PMS7003;54688;52.376;16.744;2023-07-29T01:11:35;14;11;
67892;PMS7003;54688;52.376;16.744;2023-07-29T01:14:41;8;8;
67892;PMS7003;54688;52.376;16.744;2023-07-29T01:17:52;8;8;
67892;PMS7003;54688;52.376;16.744;2023-07-29T01:20:59;12;8;
67892;PMS7003;54688;52.376;16.744;2023-07-29T01:24:02;8;8;
67892;PMS7003;54688;52.376;16.744;2023-07-29T01:27:04;11;9;
67892;PMS7003;54688;52.376;16.744;2023-07-29T01:30:07;11;9;
67892;PMS7003;54688;52.376;16.744;2023-07-29T01:33:14;8;8;
67892;PMS7003;54688;52.376;16.744;2023-07-29T01:36:21;8;8;
67892;PMS7003;54688;52.376;16.744;2023-07-29T01:39:25;10;9;
67892;PMS7003;54688;52.376;16.744;2023-07-29T01:42:29;8;8;
67892;PMS7003;54688;52.376;16.744;2023-07-29T01:45:32;9;8;
67892;PMS7003;54688;52.376;16.744;2023-07-29T01:48:34;8;8;
67892;PMS7003;54688;52.376;16.744;2023-07-29T01:51:35;10;9;
67892;PMS7003;54688;52.376;16.744;2023-07-29T01:54:37;7;7;
67892;PMS7003;54688;52.376;16.744;2023-07-29T01:57:39;7;7;
67892;PMS7003;54688;52.376;16.744;2023-07-29T02:00:41;9;9;
67892;PMS7003;54688;52.376;16.744;2023-07-29T02:03:42;7;7;
67892;PMS7003;54688;52.376;16.744;2023-07-29T02:06:44;9;9;
67892;PMS7003;54688;52.376;16.744;2023-07-29T02:09:46;7;7;
67892;PMS7003;54688;52.376;16.744;2023-07-29T02:12:47;9;8;
67892;PMS7003;54688;52.376;16.744;2023-07-29T02:15:49;8;8;
67892;PMS7003;54688;52.376;16.744;2023-07-29T02:18:51;10;10;
67892;PMS7003;54688;52.376;16.744;2023-07-29T02:21:53;8;8;
67892;PMS7003;54688;52.376;16.744;2023-07-29T02:24:55;10;10;
67892;PMS7003;54688;52.376;16.744;2023-07-29T02:27:56;10;10;
67892;PMS7003;54688;52.376;16.744;2023-07-29T02:31:15;8;7;
67892;PMS7003;54688;52.376;16.744;2023-07-29T02:34:17;10;8;
67892;PMS7003;54688;52.376;16.744;2023-07-29T02:37:19;8;8;
67892;PMS7003;54688;52.376;16.744;2023-07-29T02:40:22;10;9;
67892;PMS7003;54688;52.376;16.744;2023-07-29T02:43:23;9;9;
67892;PMS7003;54688;52.376;16.744;2023-07-29T02:46:25;9;9;
67892;PMS7003;54688;52.376;16.744;2023-07-29T02:49:27;8;8;
67892;PMS7003;54688;52.376;16.744;2023-07-29T02:52:28;8;8;
67892;PMS7003;54688;52.376;16.744;2023-07-29T02:55:30;10;10;
67892;PMS7003;54688;52.376;16.744;2023-07-29T02:58:32;9;9;
67892;PMS7003;54688;52.376;16.744;2023-07-29T03:01:34;14;11;
67892;PMS7003;54688;52.376;16.744;2023-07-29T03:04:37;12;12;
67892;PMS7003;54688;52.376;16.744;2023-07-29T03:07:38;10;8;
67892;PMS7003;54688;52.376;16.744;2023-07-29T03:10:41;11;10;
67892;PMS7003;54688;52.376;16.744;2023-07-29T03:13:43;8;8;
67892;PMS7003;54688;52.376;16.744;2023-07-29T03:16:45;13;11;
67892;PMS7003;54688;52.376;16.744;2023-07-29T03:19:47;13;11;
67892;PMS7003;54688;52.376;16.744;2023-07-29T03:22:49;12;10;
67892;PMS7003;54688;52.376;16.744;2023-07-29T03:25:51;13;11;
67892;PMS7003;54688;52.376;16.744;2023-07-29T03:28:53;12;10;
67892;PMS7003;54688;52.376;16.744;2023-07-29T03:31:55;13;13;
67892;PMS7003;54688;52.376;16.744;2023-07-29T03:34:57;11;10;
67892;PMS7003;54688;52.376;16.744;2023-07-29T03:37:59;12;12;
67892;PMS7003;54688;52.376;16.744;2023-07-29T03:41:01;11;11;
67892;PMS7003;54688;52.376;16.744;2023-07-29T03:44:03;11;9;
67892;PMS7003;54688;52.376;16.744;2023-07-29T03:47:05;10;10;
67892;PMS7003;54688;52.376;16.744;2023-07-29T03:50:07;11;10;
67892;PMS7003;54688;52.376;16.744;2023-07-29T03:53:10;10;10;
67892;PMS7003;54688;52.376;16.744;2023-07-29T03:56:11;10;10;
67892;PMS7003;54688;52.376;16.744;2023-07-29T03:59:13;10;9;
67892;PMS7003;54688;52.376;16.744;2023-07-29T04:02:15;12;9;
67892;PMS7003;54688;52.376;16.744;2023-07-29T04:05:17;11;11;
67892;PMS7003;54688;52.376;16.744;2023-07-29T04:08:19;10;10;
67892;PMS7003;54688;52.376;16.744;2023-07-29T04:11:22;12;12;
67892;PMS7003;54688;52.376;16.744;2023-07-29T04:14:24;10;10;
67892;PMS7003;54688;52.376;16.744;2023-07-29T04:17:26;12;12;
67892;PMS7003;54688;52.376;16.744;2023-07-29T04:20:28;12;11;
67892;PMS7003;54688;52.376;16.744;2023-07-29T04:23:31;13;10;
67892;PMS7003;54688;52.376;16.744;2023-07-29T04:26:33;11;11;
67892;PMS7003;54688;52.376;16.744;2023-07-29T04:29:35;16;15;
67892;PMS7003;54688;52.376;16.744;2023-07-29T04:32:37;12;10;
67892;PMS7003;54688;52.376;16.744;2023-07-29T04:35:40;12;10;
67892;PMS7003;54688;52.376;16.744;2023-07-29T04:38:41;12;12;
67892;PMS7003;54688;52.376;16.744;2023-07-29T04:41:43;13;11;
67892;PMS7003;54688;52.376;16.744;2023-07-29T04:44:45;15;14;
67892;PMS7003;54688;52.376;16.744;2023-07-29T04:47:46;17;15;
67892;PMS7003;54688;52.376;16.744;2023-07-29T04:50:49;13;11;
67892;PMS7003;54688;52.376;16.744;2023-07-29T04:53:51;12;11;
67892;PMS7003;54688;52.376;16.744;2023-07-29T04:56:54;18;13;
67892;PMS7003;54688;52.376;16.744;2023-07-29T04:59:56;13;12;
67892;PMS7003;54688;52.376;16.744;2023-07-29T05:02:57;13;12;
67892;PMS7003;54688;52.376;16.744;2023-07-29T05:06:00;17;14;
67892;PMS7003;54688;52.376;16.744;2023-07-29T05:09:12;14;12;
67892;PMS7003;54688;52.376;16.744;2023-07-29T05:12:14;10;9;
67892;PMS7003;54688;52.376;16.744;2023-07-29T05:15:16;14;12;
67892;PMS7003;54688;52.376;16.744;2023-07-29T05:18:18;13;11;
67892;PMS7003;54688;52.376;16.744;2023-07-29T05:21:20;15;14;
67892;PMS7003;54688;52.376;16.744;2023-07-29T05:24:22;16;13;
67892;PMS7003;54688;52.376;16.744;2023-07-29T05:27:24;15;13;
67892;PMS7003;54688;52.376;16.744;2023-07-29T05:30:26;13;12;
67892;PMS7003;54688;52.376;16.744;2023-07-29T05:33:28;14;14;
67892;PMS7003;54688;52.376;16.744;2023-07-29T05:36:30;15;14;
67892;PMS7003;54688;52.376;16.744;2023-07-29T05:39:31;17;15;
67892;PMS7003;54688;52.376;16.744;2023-07-29T05:42:33;16;13;
67892;PMS7003;54688;52.376;16.744;2023-07-29T05:45:35;15;15;
67892;PMS7003;54688;52.376;16.744;2023-07-29T05:48:37;18;17;
67892;PMS7003;54688;52.376;16.744;2023-07-29T05:51:39;12;12;
67892;PMS7003;54688;52.376;16.744;2023-07-29T05:54:42;14;13;
67892;PMS7003;54688;52.376;16.744;2023-07-29T05:57:44;15;14;
67892;PMS7003;54688;52.376;16.744;2023-07-29T06:00:46;17;15;
67892;PMS7003;54688;52.376;16.744;2023-07-29T06:03:48;16;15;
67892;PMS7003;54688;52.376;16.744;2023-07-29T06:06:50;18;15;
67892;PMS7003;54688;52.376;16.744;2023-07-29T06:09:52;18;15;
67892;PMS7003;54688;52.376;16.744;2023-07-29T06:15:53;17;16;
67892;PMS7003;54688;52.376;16.744;2023-07-29T06:18:56;17;17;
67892;PMS7003;54688;52.376;16.744;2023-07-29T06:21:59;17;15;
67892;PMS7003;54688;52.376;16.744;2023-07-29T07:53:22;14;14;
67892;PMS7003;54688;52.376;16.744;2023-07-29T07:56:24;19;18;
67892;PMS7003;54688;52.376;16.744;2023-07-29T07:59:27;10;10;
67892;PMS7003;54688;52.376;16.744;2023-07-29T08:01:09;18;15;
67892;PMS7003;54688;52.376;16.744;2023-07-29T08:04:12;12;12;
67892;PMS7003;54688;52.376;16.744;2023-07-29T08:07:15;9;8;
67892;PMS7003;54688;52.376;16.744;2023-07-29T08:10:16;9;8;
67892;PMS7003;54688;52.376;16.744;2023-07-29T08:13:18;7;7;
67892;PMS7003;54688;52.376;16.744;2023-07-29T08:16:19;7;6;
67892;PMS7003;54688;52.376;16.744;2023-07-29T08:19:21;6;5;
67892;PMS7003;54688;52.376;16.744;2023-07-29T08:22:23;8;6;
67892;PMS7003;54688;52.376;16.744;2023-07-29T08:25:25;7;5;
67892;PMS7003;54688;52.376;16.744;2023-07-29T08:28:29;7;6;
67892;PMS7003;54688;52.376;16.744;2023-07-29T08:31:30;8;7;
67892;PMS7003;54688;52.376;16.744;2023-07-29T08:34:32;6;6;
67892;PMS7003;54688;52.376;16.744;2023-07-29T08:37:33;5;5;
67892;PMS7003;54688;52.376;16.744;2023-07-29T08:40:37;3;3;
67892;PMS7003;54688;52.376;16.744;2023-07-29T08:43:46;5;5;
67892;PMS7003;54688;52.376;16.744;2023-07-29T08:46:52;5;5;
67892;PMS7003;54688;52.376;16.744;2023-07-29T08:49:54;5;5;
67892;PMS7003;54688;52.376;16.744;2023-07-29T08:52:58;4;4;
67892;PMS7003;54688;52.376;16.744;2023-07-29T08:55:59;5;5;
67892;PMS7003;54688;52.376;16.744;2023-07-29T08:59:02;5;5;
67892;PMS7003;54688;52.376;16.744;2023-07-29T09:02:04;5;5;
67892;PMS7003;54688;52.376;16.744;2023-07-29T09:05:06;5;5;
67892;PMS7003;54688;52.376;16.744;2023-07-29T09:08:09;4;4;
67892;PMS7003;54688;52.376;16.744;2023-07-29T09:11:13;4;4;
67892;PMS7003;54688;52.376;16.744;2023-07-29T09:14:16;5;5;
67892;PMS7003;54688;52.376;16.744;2023-07-29T09:17:19;5;5;
67892;PMS7003;54688;52.376;16.744;2023-07-29T09:20:24;5;5;
67892;PMS7003;54688;52.376;16.744;2023-07-29T09:23:26;5;5;
67892;PMS7003;54688;52.376;16.744;2023-07-29T09:26:28;5;3;
67892;PMS7003;54688;52.376;16.744;2023-07-29T09:29:30;5;4;
67892;PMS7003;54688;52.376;16.744;2023-07-29T09:32:33;6;6;
67892;PMS7003;54688;52.376;16.744;2023-07-29T09:35:36;5;5;
67892;PMS7003;54688;52.376;16.744;2023-07-29T09:38:38;7;7;
67892;PMS7003;54688;52.376;16.744;2023-07-29T09:41:41;5;5;
67892;PMS7003;54688;52.376;16.744;2023-07-29T09:44:43;6;5;
67892;PMS7003;54688;52.376;16.744;2023-07-29T09:47:46;4;4;
67892;PMS7003;54688;52.376;16.744;2023-07-29T09:50:48;6;5;
67892;PMS7003;54688;52.376;16.744;2023-07-29T09:53:51;4;4;
67892;PMS7003;54688;52.376;16.744;2023-07-29T09:56:53;4;4;
67892;PMS7003;54688;52.376;16.744;2023-07-29T09:59:56;3;3;
67892;PMS7003;54688;52.376;16.744;2023-07-29T10:02:58;3;2;
67892;PMS7003;54688;52.376;16.744;2023-07-29T10:06:01;7;5;
67892;PMS7003;54688;52.376;16.744;2023-07-29T10:09:04;7;5;
67892;PMS7003;54688;52.376;16.744;2023-07-29T10:12:07;4;4;
67892;PMS7003;54688;52.376;16.744;2023-07-29T10:15:09;7;4;
67892;PMS7003;54688;52.376;16.744;2023-07-29T10:18:11;4;4;
67892;PMS7003;54688;52.376;16.744;2023-07-29T10:21:14;5;5;
67892;PMS7003;54688;52.376;16.744;2023-07-29T10:24:19;5;4;
67892;PMS7003;54688;52.376;16.744;2023-07-29T10:27:25;4;4;
67892;PMS7003;54688;52.376;16.744;2023-07-29T10:30:28;6;6;
67892;PMS7003;54688;52.376;16.744;2023-07-29T10:33:31;4;4;
67892;PMS7003;54688;52.376;16.744;2023-07-29T10:36:35;4;4;
67892;PMS7003;54688;52.376;16.744;2023-07-29T10:39:38;4;4;
67892;PMS7003;54688;52.376;16.744;2023-07-29T10:42:59;5;5;
67892;PMS7003;54688;52.376;16.744;2023-07-29T10:46:15;5;5;
67892;PMS7003;54688;52.376;16.744;2023-07-29T10:49:22;6;6;
67892;PMS7003;54688;52.376;16.744;2023-07-29T10:52:29;5;5;
67892;PMS7003;54688;52.376;16.744;2023-07-29T10:55:33;6;6;
67892;PMS7003;54688;52.376;16.744;2023-07-29T10:58:36;4;4;
67892;PMS7003;54688;52.376;16.744;2023-07-29T11:04:46;7;7;
67892;PMS7003;54688;52.376;16.744;2023-07-29T11:07:48;5;5;
67892;PMS7003;54688;52.376;16.744;2023-07-29T11:11:02;5;4;
67892;PMS7003;54688;52.376;16.744;2023-07-29T11:14:05;4;2;
67892;PMS7003;54688;52.376;16.744;2023-07-29T11:17:06;3;3;
67892;PMS7003;54688;52.376;16.744;2023-07-29T11:20:10;5;3;
67892;PMS7003;54688;52.376;16.744;2023-07-29T11:23:12;6;6;
67892;PMS7003;54688;52.376;16.744;2023-07-29T11:26:14;5;3;
67892;PMS7003;54688;52.376;16.744;2023-07-29T11:29:16;7;6;
67892;PMS7003;54688;52.376;16.744;2023-07-29T11:32:18;6;6;
67892;PMS7003;54688;52.376;16.744;2023-07-29T11:35:20;5;3;
67892;PMS7003;54688;52.376;16.744;2023-07-29T11:38:22;3;3;
67892;PMS7003;54688;52.376;16.744;2023-07-29T11:41:24;2;2;
67892;PMS7003;54688;52.376;16.744;2023-07-29T11:44:26;3;3;
67892;PMS7003;54688;52.376;16.744;2023-07-29T11:47:28;4;3;
67892;PMS7003;54688;52.376;16.744;2023-07-29T11:50:29;4;2;
67892;PMS7003;54688;52.376;16.744;2023-07-29T11:53:41;3;3;
67892;PMS7003;54688;52.376;16.744;2023-07-29T11:56:43;4;4;
67892;PMS7003;54688;52.376;16.744;2023-07-29T11:59:46;4;2;
67892;PMS7003;54688;52.376;16.744;2023-07-29T12:02:49;4;4;
67892;PMS7003;54688;52.376;16.744;2023-07-29T12:05:51;3;3;
67892;PMS7003;54688;52.376;16.744;2023-07-29T12:08:53;4;4;
67892;PMS7003;54688;52.376;16.744;2023-07-29T12:11:55;5;5;
67892;PMS7003;54688;52.376;16.744;2023-07-29T12:14:58;5;5;
67892;PMS7003;54688;52.376;16.744;2023-07-29T12:18:00;4;4;
67892;PMS7003;54688;52.376;16.744;2023-07-29T12:21:03;4;3;
67892;PMS7003;54688;52.376;16.744;2023-07-29T12:24:05;3;3;
67892;PMS7003;54688;52.376;16.744;2023-07-29T12:27:11;3;3;
67892;PMS7003;54688;52.376;16.744;2023-07-29T12:30:13;3;3;
67892;PMS7003;54688;52.376;16.744;2023-07-29T12:33:29;3;3;
67892;PMS7003;54688;52.376;16.744;2023-07-29T12:36:41;3;3;
67892;PMS7003;54688;52.376;16.744;2023-07-29T12:39:44;5;5;
67892;PMS7003;54688;52.376;16.744;2023-07-29T12:42:46;8;8;
67892;PMS7003;54688;52.376;16.744;2023-07-29T12:45:49;4;4;
67892;PMS7003;54688;52.376;16.744;2023-07-29T12:48:50;3;3;
67892;PMS7003;54688;52.376;16.744;2023-07-29T12:51:53;1;1;
67892;PMS7003;54688;52.376;16.744;2023-07-29T12:54:55;4;4;
67892;PMS7003;54688;52.376;16.744;2023-07-29T12:57:58;5;3;
67892;PMS7003;54688;52.376;16.744;2023-07-29T13:01:00;1;1;
67892;PMS7003;54688;52.376;16.744;2023-07-29T13:04:02;2;2;
67892;PMS7003;54688;52.376;16.744;2023-07-29T13:07:05;3;3;
67892;PMS7003;54688;52.376;16.744;2023-07-29T13:10:08;5;5;
67892;PMS7003;54688;52.376;16.744;2023-07-29T13:13:10;5;4;
67892;PMS7003;54688;52.376;16.744;2023-07-29T13:16:12;3;3;
67892;PMS7003;54688;52.376;16.744;2023-07-29T13:19:15;3;3;
67892;PMS7003;54688;52.376;16.744;2023-07-29T13:22:17;3;3;
67892;PMS7003;54688;52.376;16.744;2023-07-29T13:25:20;2;2;
67892;PMS7003;54688;52.376;16.744;2023-07-29T13:28:22;1;1;
67892;PMS7003;54688;52.376;16.744;2023-07-29T13:31:24;2;2;
67892;PMS7003;54688;52.376;16.744;2023-07-29T13:34:26;2;2;
67892;PMS7003;54688;52.376;16.744;2023-07-29T13:37:28;2;2;
67892;PMS7003;54688;52.376;16.744;2023-07-29T13:40:31;2;2;
67892;PMS7003;54688;52.376;16.744;2023-07-29T13:43:33;2;2;
67892;PMS7003;54688;52.376;16.744;2023-07-29T13:46:34;2;2;
67892;PMS7003;54688;52.376;16.744;2023-07-29T13:49:35;10;5;
67892;PMS7003;54688;52.376;16.744;2023-07-29T13:52:38;3;2;
67892;PMS7003;54688;52.376;16.744;2023-07-29T13:55:40;1;1;
67892;PMS7003;54688;52.376;16.744;2023-07-29T13:58:42;2;2;
67892;PMS7003;54688;52.376;16.744;2023-07-29T14:01:43;2;2;
67892;PMS7003;54688;52.376;16.744;2023-07-29T14:07:44;2;2;
67892;PMS7003;54688;52.376;16.744;2023-07-29T14:10:46;1;1;
67892;PMS7003;54688;52.376;16.744;2023-07-29T14:13:48;2;2;
67892;PMS7003;54688;52.376;16.744;2023-07-29T14:16:51;2;2;
67892;PMS7003;54688;52.376;16.744;2023-07-29T14:19:53;5;2;
67892;PMS7003;54688;52.376;16.744;2023-07-29T14:22:55;4;4;
67892;PMS7003;54688;52.376;16.744;2023-07-29T14:25:58;2;2;
67892;PMS7003;54688;52.376;16.744;2023-07-29T14:28:59;5;5;
67892;PMS7003;54688;52.376;16.744;2023-07-29T14:32:02;4;3;
67892;PMS7003;54688;52.376;16.744;2023-07-29T14:35:04;3;3;
67892;PMS7003;54688;52.376;16.744;2023-07-29T14:38:14;2;2;
67892;PMS7003;54688;52.376;16.744;2023-07-29T14:41:17;1;1;
67892;PMS7003;54688;52.376;16.744;2023-07-29T14:44:19;0;0;
67892;PMS7003;54688;52.376;16.744;2023-07-29T14:47:21;3;3;
67892;PMS7003;54688;52.376;16.744;2023-07-29T14:50:23;2;2;
67892;PMS7003;54688;52.376;16.744;2023-07-29T14:53:25;1;1;
67892;PMS7003;54688;52.376;16.744;2023-07-29T14:56:28;2;2;
67892;PMS7003;54688;52.376;16.744;2023-07-29T14:59:29;4;2;
67892;PMS7003;54688;52.376;16.744;2023-07-29T15:02:31;2;2;
67892;PMS7003;54688;52.376;16.744;2023-07-29T15:05:33;2;2;
67892;PMS7003;54688;52.376;16.744;2023-07-29T15:08:36;1;1;
67892;PMS7003;54688;52.376;16.744;2023-07-29T15:11:37;3;3;
67892;PMS7003;54688;52.376;16.744;2023-07-29T15:14:39;2;2;
67892;PMS7003;54688;52.376;16.744;2023-07-29T15:17:41;1;1;
67892;PMS7003;54688;52.376;16.744;2023-07-29T15:20:43;1;1;
67892;PMS7003;54688;52.376;16.744;2023-07-29T15:23:46;2;2;
67892;PMS7003;54688;52.376;16.744;2023-07-29T15:26:48;3;3;
67892;PMS7003;54688;52.376;16.744;2023-07-29T15:29:50;1;1;
67892;PMS7003;54688;52.376;16.744;2023-07-29T15:32:54;2;2;
67892;PMS7003;54688;52.376;16.744;2023-07-29T15:35:56;9;8;
67892;PMS7003;54688;52.376;16.744;2023-07-29T15:38:58;7;5;
67892;PMS7003;54688;52.376;16.744;2023-07-29T15:42:00;5;3;
67892;PMS7003;54688;52.376;16.744;2023-07-29T15:45:03;5;5;
67892;PMS7003;54688;52.376;16.744;2023-07-29T15:48:05;6;6;
67892;PMS7003;54688;52.376;16.744;2023-07-29T15:54:06;3;3;
67892;PMS7003;54688;52.376;16.744;2023-07-29T15:57:09;10;3;
67892;PMS7003;54688;52.376;16.744;2023-07-29T16:00:12;1;1;
67892;PMS7003;54688;52.376;16.744;2023-07-29T16:03:15;0;0;
67892;PMS7003;54688;52.376;16.744;2023-07-29T16:06:17;1;1;
67892;PMS7003;54688;52.376;16.744;2023-07-29T16:09:20;4;4;
67892;PMS7003;54688;52.376;16.744;2023-07-29T16:12:22;4;3;
67892;PMS7003;54688;52.376;16.744;2023-07-29T16:15:25;1;1;
67892;PMS7003;54688;52.376;16.744;2023-07-29T16:18:27;3;3;
67892;PMS7003;54688;52.376;16.744;2023-07-29T16:21:29;3;3;
67892;PMS7003;54688;52.376;16.744;2023-07-29T16:24:30;3;3;
67892;PMS7003;54688;52.376;16.744;2023-07-29T16:27:32;7;3;
67892;PMS7003;54688;52.376;16.744;2023-07-29T16:30:34;1;1;
67892;PMS7003;54688;52.376;16.744;2023-07-29T16:33:36;2;1;
67892;PMS7003;54688;52.376;16.744;2023-07-29T16:36:38;1;0;
67892;PMS7003;54688;52.376;16.744;2023-07-29T16:39:39;1;1;
67892;PMS7003;54688;52.376;16.744;2023-07-29T16:42:41;1;1;
67892;PMS7003;54688;52.376;16.744;2023-07-29T16:45:43;2;2;
67892;PMS7003;54688;52.376;16.744;2023-07-29T16:48:44;1;1;
67892;PMS7003;54688;52.376;16.744;2023-07-29T16:51:48;2;0;
67892;PMS7003;54688;52.376;16.744;2023-07-29T16:54:50;1;1;
67892;PMS7003;54688;52.376;16.744;2023-07-29T16:57:52;3;3;
67892;PMS7003;54688;52.376;16.744;2023-07-29T17:00:54;1;0;
67892;PMS7003;54688;52.376;16.744;2023-07-29T17:03:56;1;1;
67892;PMS7003;54688;52.376;16.744;2023-07-29T17:06:58;3;0;
67892;PMS7003;54688;52.376;16.744;2023-07-29T17:10:00;1;1;
67892;PMS7003;54688;52.376;16.744;2023-07-29T17:13:02;0;0;
67892;PMS7003;54688;52.376;16.744;2023-07-29T17:16:04;0;0;
67892;PMS7003;54688;52.376;16.744;2023-07-29T17:19:06;1;1;
67892;PMS7003;54688;52.376;16.744;2023-07-29T17:22:08;2;1;
67892;PMS7003;54688;52.376;16.744;2023-07-29T17:25:10;0;0;
67892;PMS7003;54688;52.376;16.744;2023-07-29T17:28:12;0;0;
67892;PMS7003;54688;52.376;16.744;2023-07-29T17:31:13;1;1;
67892;PMS7003;54688;52.376;16.744;2023-07-29T17:34:16;1;1;
67892;PMS7003;54688;52.376;16.744;2023-07-29T17:37:17;1;1;
67892;PMS7003;54688;52.376;16.744;2023-07-29T17:43:19;1;1;
67892;PMS7003;54688;52.376;16.744;2023-07-29T17:46:21;2;2;
67892;PMS7003;54688;52.376;16.744;2023-07-29T17:49:23;0;0;
67892;PMS7003;54688;52.376;16.744;2023-07-29T17:52:24;2;1;
67892;PMS7003;54688;52.376;16.744;2023-07-29T17:55:26;1;1;
67892;PMS7003;54688;52.376;16.744;2023-07-29T17:58:28;2;2;
67892;PMS7003;54688;52.376;16.744;2023-07-29T18:01:30;1;1;
67892;PMS7003;54688;52.376;16.744;2023-07-29T18:04:32;3;2;
67892;PMS7003;54688;52.376;16.744;2023-07-29T18:07:34;3;3;
67892;PMS7003;54688;52.376;16.744;2023-07-29T18:10:39;4;3;
67892;PMS7003;54688;52.376;16.744;2023-07-29T18:13:40;2;2;
67892;PMS7003;54688;52.376;16.744;2023-07-29T18:16:42;2;2;
67892;PMS7003;54688;52.376;16.744;2023-07-29T18:19:43;1;1;
67892;PMS7003;54688;52.376;16.744;2023-07-29T18:22:45;1;1;
67892;PMS7003;54688;52.376;16.744;2023-07-29T18:25:47;1;1;
67892;PMS7003;54688;52.376;16.744;2023-07-29T18:28:48;3;2;
67892;PMS7003;54688;52.376;16.744;2023-07-29T18:31:50;1;1;
67892;PMS7003;54688;52.376;16.744;2023-07-29T18:34:51;2;2;
67892;PMS7003;54688;52.376;16.744;2023-07-29T18:37:53;1;1;
67892;PMS7003;54688;52.376;16.744;2023-07-29T18:40:55;2;2;
67892;PMS7003;54688;52.376;16.744;2023-07-29T18:43:56;3;2;
67892;PMS7003;54688;52.376;16.744;2023-07-29T18:46:59;3;1;
67892;PMS7003;54688;52.376;16.744;2023-07-29T18:50:00;2;2;
67892;PMS7003;54688;52.376;16.744;2023-07-29T18:53:02;3;1;
67892;PMS7003;54688;52.376;16.744;2023-07-29T18:56:05;6;3;
67892;PMS7003;54688;52.376;16.744;2023-07-29T18:59:06;3;3;
67892;PMS7003;54688;52.376;16.744;2023-07-29T19:02:09;2;2;
67892;PMS7003;54688;52.376;16.744;2023-07-29T19:05:12;4;3;
67892;PMS7003;54688;52.376;16.744;2023-07-29T19:08:14;1;1;
67892;PMS7003;54688;52.376;16.744;2023-07-29T19:11:15;6;4;
67892;PMS7003;54688;52.376;16.744;2023-07-29T19:14:17;5;5;
67892;PMS7003;54688;52.376;16.744;2023-07-29T19:17:19;5;5;
67892;PMS7003;54688;52.376;16.744;2023-07-29T19:20:21;3;3;
67892;PMS7003;54688;52.376;16.744;2023-07-29T19:23:23;1;1;
67892;PMS7003;54688;52.376;16.744;2023-07-29T19:26:26;2;1;
67892;PMS7003;54688;52.376;16.744;2023-07-29T19:29:27;3;2;
67892;PMS7003;54688;52.376;16.744;2023-07-29T19:32:30;4;2;
67892;PMS7003;54688;52.376;16.744;2023-07-29T19:35:31;3;3;
67892;PMS7003;54688;52.376;16.744;2023-07-29T19:38:33;8;5;
67892;PMS7003;54688;52.376;16.744;2023-07-29T19:41:35;3;3;
67892;PMS7003;54688;52.376;16.744;2023-07-29T19:44:36;3;3;
67892;PMS7003;54688;52.376;16.744;2023-07-29T19:47:38;6;5;
67892;PMS7003;54688;52.376;16.744;2023-07-29T19:50:40;7;6;
67892;PMS7003;54688;52.376;16.744;2023-07-29T19:53:42;8;5;
67892;PMS7003;54688;52.376;16.744;2023-07-29T19:56:44;5;5;
67892;PMS7003;54688;52.376;16.744;2023-07-29T19:59:46;5;4;
67892;PMS7003;54688;52.376;16.744;2023-07-29T20:02:48;7;4;
67892;PMS7003;54688;52.376;16.744;2023-07-29T20:05:50;5;4;
67892;PMS7003;54688;52.376;16.744;2023-07-29T20:08:52;4;4;
67892;PMS7003;54688;52.376;16.744;2023-07-29T20:11:54;5;4;
67892;PMS7003;54688;52.376;16.744;2023-07-29T20:14:55;7;5;
67892;PMS7003;54688;52.376;16.744;2023-07-29T20:17:57;3;3;
67892;PMS7003;54688;52.376;16.744;2023-07-29T20:21:00;4;3;
67892;PMS7003;54688;52.376;16.744;2023-07-29T20:24:01;3;3;
67892;PMS7003;54688;52.376;16.744;2023-07-29T20:27:03;6;4;
67892;PMS7003;54688;52.376;16.744;2023-07-29T20:30:06;4;4;
67892;PMS7003;54688;52.376;16.744;2023-07-29T20:33:09;5;4;
67892;PMS7003;54688;52.376;16.744;2023-07-29T20:36:11;5;5;
67892;PMS7003;54688;52.376;16.744;2023-07-29T20:39:13;7;5;
67892;PMS7003;54688;52.376;16.744;2023-07-29T20:42:15;5;5;
67892;PMS7003;54688;52.376;16.744;2023-07-29T20:45:16;7;5;
67892;PMS7003;54688;52.376;16.744;2023-07-29T20:48:19;3;3;
67892;PMS7003;54688;52.376;16.744;2023-07-29T20:54:19;8;4;
67892;PMS7003;54688;52.376;16.744;2023-07-29T20:57:20;5;4;
67892;PMS7003;54688;52.376;16.744;2023-07-29T21:00:22;4;4;
67892;PMS7003;54688;52.376;16.744;2023-07-29T21:03:24;4;4;
67892;PMS7003;54688;52.376;16.744;2023-07-29T21:06:26;5;5;
67892;PMS7003;54688;52.376;16.744;2023-07-29T21:09:29;3;3;
67892;PMS7003;54688;52.376;16.744;2023-07-29T21:12:31;2;2;
67892;PMS7003;54688;52.376;16.744;2023-07-29T21:15:33;5;4;
67892;PMS7003;54688;52.376;16.744;2023-07-29T21:18:35;4;3;
67892;PMS7003;54688;52.376;16.744;2023-07-29T21:21:37;4;4;
67892;PMS7003;54688;52.376;16.744;2023-07-29T21:24:40;5;4;
67892;PMS7003;54688;52.376;16.744;2023-07-29T21:27:42;6;3;
67892;PMS7003;54688;52.376;16.744;2023-07-29T21:30:44;6;5;
67892;PMS7003;54688;52.376;16.744;2023-07-29T21:33:46;5;4;
67892;PMS7003;54688;52.376;16.744;2023-07-29T21:36:49;8;5;
67892;PMS7003;54688;52.376;16.744;2023-07-29T21:39:50;7;4;
67892;PMS7003;54688;52.376;16.744;2023-07-29T21:42:52;6;5;
67892;PMS7003;54688;52.376;16.744;2023-07-29T21:45:54;6;5;
67892;PMS7003;54688;52.376;16.744;2023-07-29T21:48:56;8;5;
67892;PMS7003;54688;52.376;16.744;2023-07-29T21:51:58;6;3;
67892;PMS7003;54688;52.376;16.744;2023-07-29T21:54:59;9;8;
67892;PMS7003;54688;52.376;16.744;2023-07-29T21:58:02;7;5;
67892;PMS7003;54688;52.376;16.744;2023-07-29T22:01:04;9;6;
67892;PMS7003;54688;52.376;16.744;2023-07-29T22:04:06;7;5;
67892;PMS7003;54688;52.376;16.744;2023-07-29T22:07:07;7;7;